sensor_id;sensor_type;location;lat;lon;timestamp;temperature;humidity
12264;DHT22;6194;49.010;8.414;2023-11-19T00:01:40;9.80;99.90
12264;DHT22;6194;49.010;8.414;2023-11-19T00:04:05;9.80;99.90
12264;DHT22;6194;49.010;8.414;2023-11-19T00:06:31;9.80;99.90
12264;DHT22;6194;49.010;8.414;2023-11-19T00:08:57;9.80;99.90
12264;DHT22;6194;49.010;8.414;2023-11-19T00:11:22;9.90;99.90
12264;DHT22;6194;49.010;8.414;2023-11-19T00:13:48;9.90;99.90
12264;DHT22;6194;49.010;8.414;2023-11-19T00:16:13;9.90;99.90
12264;DHT22;6194;49.010;8.414;2023-11-19T00:18:39;9.90;99.90
12264;DHT22;6194;49.010;8.414;2023-11-19T00:21:05;10.00;99.90
12264;DHT22;6194;49.010;8.414;2023-11-19T00:23:33;10.00;99.90
12264;DHT22;6194;49.010;8.414;2023-11-19T00:25:58;10.10;99.90
12264;DHT22;6194;49.010;8.414;2023-11-19T00:28:24;10.10;99.90
12264;DHT22;6194;49.010;8.414;2023-11-19T00:30:50;10.10;99.90
12264;DHT22;6194;49.010;8.414;2023-11-19T00:33:15;10.10;99.90
12264;DHT22;6194;49.010;8.414;2023-11-19T00:35:41;10.20;99.90
12264;DHT22;6194;49.010;8.414;2023-11-19T00:38:06;10.10;99.90
12264;DHT22;6194;49.010;8.414;2023-11-19T00:40:32;10.20;99.90
12264;DHT22;6194;49.010;8.414;2023-11-19T00:42:57;10.20;99.90
12264;DHT22;6194;49.010;8.414;2023-11-19T00:45:23;10.20;99.90
12264;DHT22;6194;49.010;8.414;2023-11-19T00:47:49;10.20;99.90
12264;DHT22;6194;49.010;8.414;2023-11-19T00:50:15;10.30;99.90
12264;DHT22;6194;49.010;8.414;2023-11-19T00:52:41;10.30;99.90
12264;DHT22;6194;49.010;8.414;2023-11-19T00:55:07;10.30;99.90
12264;DHT22;6194;49.010;8.414;2023-11-19T00:57:33;10.30;99.90
12264;DHT22;6194;49.010;8.414;2023-11-19T00:59:59;10.30;99.90
12264;DHT22;6194;49.010;8.414;2023-11-19T01:02:25;10.30;99.90
12264;DHT22;6194;49.010;8.414;2023-11-19T01:04:51;10.40;99.90
12264;DHT22;6194;49.010;8.414;2023-11-19T01:07:17;10.40;99.90
12264;DHT22;6194;49.010;8.414;2023-11-19T01:09:43;10.40;99.90
12264;DHT22;6194;49.010;8.414;2023-11-19T01:12:09;10.40;99.90
12264;DHT22;6194;49.010;8.414;2023-11-19T01:14:35;10.40;99.90
12264;DHT22;6194;49.010;8.414;2023-11-19T01:17:01;10.60;99.90
12264;DHT22;6194;49.010;8.414;2023-11-19T01:19:27;10.40;99.90
12264;DHT22;6194;49.010;8.414;2023-11-19T01:21:54;10.40;99.90
12264;DHT22;6194;49.010;8.414;2023-11-19T01:24:20;10.40;99.90
12264;DHT22;6194;49.010;8.414;2023-11-19T01:26:46;10.50;99.90
12264;DHT22;6194;49.010;8.414;2023-11-19T01:29:15;10.50;99.90
12264;DHT22;6194;49.010;8.414;2023-11-19T01:31:46;10.50;99.90
12264;DHT22;6194;49.010;8.414;2023-11-19T01:34:16;10.50;99.90
12264;DHT22;6194;49.010;8.414;2023-11-19T01:36:42;10.50;99.90
12264;DHT22;6194;49.010;8.414;2023-11-19T01:39:07;10.50;99.90
12264;DHT22;6194;49.010;8.414;2023-11-19T01:41:36;10.70;99.90
12264;DHT22;6194;49.010;8.414;2023-11-19T01:44:02;10.50;99.90
12264;DHT22;6194;49.010;8.414;2023-11-19T01:46:28;10.60;99.90
12264;DHT22;6194;49.010;8.414;2023-11-19T01:48:54;10.60;99.90
12264;DHT22;6194;49.010;8.414;2023-11-19T01:51:21;10.90;99.90
12264;DHT22;6194;49.010;8.414;2023-11-19T01:53:48;10.60;99.90
12264;DHT22;6194;49.010;8.414;2023-11-19T01:56:15;10.60;99.90
12264;DHT22;6194;49.010;8.414;2023-11-19T01:58:42;10.60;99.90
12264;DHT22;6194;49.010;8.414;2023-11-19T02:01:10;10.60;99.90
12264;DHT22;6194;49.010;8.414;2023-11-19T02:03:36;10.60;99.90
12264;DHT22;6194;49.010;8.414;2023-11-19T02:06:03;10.60;99.90
12264;DHT22;6194;49.010;8.414;2023-11-19T02:08:30;10.60;99.90
12264;DHT22;6194;49.010;8.414;2023-11-19T02:10:55;10.60;99.90
12264;DHT22;6194;49.010;8.414;2023-11-19T02:13:26;10.60;99.90
12264;DHT22;6194;49.010;8.414;2023-11-19T02:15:52;10.60;99.90
12264;DHT22;6194;49.010;8.414;2023-11-19T02:18:22;10.70;99.90
12264;DHT22;6194;49.010;8.414;2023-11-19T02:20:49;10.70;99.90
12264;DHT22;6194;49.010;8.414;2023-11-19T02:23:15;10.70;99.90
12264;DHT22;6194;49.010;8.414;2023-11-19T02:25:42;10.70;99.90
12264;DHT22;6194;49.010;8.414;2023-11-19T02:28:08;10.70;99.90
12264;DHT22;6194;49.010;8.414;2023-11-19T02:30:37;10.70;99.90
12264;DHT22;6194;49.010;8.414;2023-11-19T02:33:03;10.70;99.90
12264;DHT22;6194;49.010;8.414;2023-11-19T02:35:31;10.90;99.90
12264;DHT22;6194;49.010;8.414;2023-11-19T02:37:58;10.70;99.90
12264;DHT22;6194;49.010;8.414;2023-11-19T02:40:25;10.70;99.90
12264;DHT22;6194;49.010;8.414;2023-11-19T02:42:54;10.80;99.90
12264;DHT22;6194;49.010;8.414;2023-11-19T02:45:22;10.70;99.90
12264;DHT22;6194;49.010;8.414;2023-11-19T02:47:48;10.90;99.90
12264;DHT22;6194;49.010;8.414;2023-11-19T02:50:13;10.80;99.90
12264;DHT22;6194;49.010;8.414;2023-11-19T02:52:43;10.80;99.90
12264;DHT22;6194;49.010;8.414;2023-11-19T02:55:10;11.40;99.90
12264;DHT22;6194;49.010;8.414;2023-11-19T02:57:40;10.80;99.90
12264;DHT22;6194;49.010;8.414;2023-11-19T03:02:42;10.80;99.90
12264;DHT22;6194;49.010;8.414;2023-11-19T03:05:16;10.80;99.90
12264;DHT22;6194;49.010;8.414;2023-11-19T03:07:44;10.90;99.90
12264;DHT22;6194;49.010;8.414;2023-11-19T03:10:11;10.90;99.90
12264;DHT22;6194;49.010;8.414;2023-11-19T03:12:43;10.90;99.90
12264;DHT22;6194;49.010;8.414;2023-11-19T03:15:09;10.90;99.90
12264;DHT22;6194;49.010;8.414;2023-11-19T03:17:41;10.90;99.90
12264;DHT22;6194;49.010;8.414;2023-11-19T03:20:09;10.90;99.90
12264;DHT22;6194;49.010;8.414;2023-11-19T03:22:37;10.90;99.90
12264;DHT22;6194;49.010;8.414;2023-11-19T03:25:03;10.90;99.90
12264;DHT22;6194;49.010;8.414;2023-11-19T03:27:29;10.90;99.90
12264;DHT22;6194;49.010;8.414;2023-11-19T03:29:55;10.90;99.90
12264;DHT22;6194;49.010;8.414;2023-11-19T03:32:20;10.90;99.90
12264;DHT22;6194;49.010;8.414;2023-11-19T03:34:46;10.90;99.90
12264;DHT22;6194;49.010;8.414;2023-11-19T03:37:11;10.90;99.90
12264;DHT22;6194;49.010;8.414;2023-11-19T03:39:38;10.90;99.90
12264;DHT22;6194;49.010;8.414;2023-11-19T03:42:04;10.90;99.90
12264;DHT22;6194;49.010;8.414;2023-11-19T03:44:29;10.90;99.90
12264;DHT22;6194;49.010;8.414;2023-11-19T03:46:55;11.00;99.90
12264;DHT22;6194;49.010;8.414;2023-11-19T03:49:20;11.00;99.90
12264;DHT22;6194;49.010;8.414;2023-11-19T03:51:46;10.90;99.90
12264;DHT22;6194;49.010;8.414;2023-11-19T03:54:12;11.00;99.90
12264;DHT22;6194;49.010;8.414;2023-11-19T03:56:38;11.00;99.90
12264;DHT22;6194;49.010;8.414;2023-11-19T03:59:03;11.00;99.90
12264;DHT22;6194;49.010;8.414;2023-11-19T04:01:29;11.00;99.90
12264;DHT22;6194;49.010;8.414;2023-11-19T04:03:54;11.00;99.90
12264;DHT22;6194;49.010;8.414;2023-11-19T04:06:21;11.00;99.90
12264;DHT22;6194;49.010;8.414;2023-11-19T04:08:49;11.00;99.90
12264;DHT22;6194;49.010;8.414;2023-11-19T04:11:15;11.00;99.90
12264;DHT22;6194;49.010;8.414;2023-11-19T04:13:40;11.00;99.90
12264;DHT22;6194;49.010;8.414;2023-11-19T04:16:07;11.00;99.90
12264;DHT22;6194;49.010;8.414;2023-11-19T04:18:32;11.00;99.90
12264;DHT22;6194;49.010;8.414;2023-11-19T04:20:58;11.10;99.90
12264;DHT22;6194;49.010;8.414;2023-11-19T04:23:24;11.10;99.90
12264;DHT22;6194;49.010;8.414;2023-11-19T04:25:50;11.10;99.90
12264;DHT22;6194;49.010;8.414;2023-11-19T04:28:16;11.10;99.90
12264;DHT22;6194;49.010;8.414;2023-11-19T04:30:42;11.10;99.90
12264;DHT22;6194;49.010;8.414;2023-11-19T04:33:07;11.10;99.90
12264;DHT22;6194;49.010;8.414;2023-11-19T04:35:33;11.10;99.90
12264;DHT22;6194;49.010;8.414;2023-11-19T04:37:58;11.10;99.90
12264;DHT22;6194;49.010;8.414;2023-11-19T04:40:24;11.20;99.90
12264;DHT22;6194;49.010;8.414;2023-11-19T04:42:50;11.20;99.90
12264;DHT22;6194;49.010;8.414;2023-11-19T04:45:16;11.20;99.90
12264;DHT22;6194;49.010;8.414;2023-11-19T04:47:42;11.20;99.90
12264;DHT22;6194;49.010;8.414;2023-11-19T04:50:08;11.20;99.90
12264;DHT22;6194;49.010;8.414;2023-11-19T04:52:39;11.30;99.90
12264;DHT22;6194;49.010;8.414;2023-11-19T04:55:07;11.30;99.90
12264;DHT22;6194;49.010;8.414;2023-11-19T04:57:33;11.30;99.90
12264;DHT22;6194;49.010;8.414;2023-11-19T04:59:58;11.30;99.90
12264;DHT22;6194;49.010;8.414;2023-11-19T05:02:24;11.40;99.90
12264;DHT22;6194;49.010;8.414;2023-11-19T05:04:53;11.40;99.90
12264;DHT22;6194;49.010;8.414;2023-11-19T05:07:19;11.40;99.90
12264;DHT22;6194;49.010;8.414;2023-11-19T05:09:44;11.50;99.90
12264;DHT22;6194;49.010;8.414;2023-11-19T05:12:10;11.50;99.90
12264;DHT22;6194;49.010;8.414;2023-11-19T05:14:38;11.50;99.90
12264;DHT22;6194;49.010;8.414;2023-11-19T05:17:03;11.60;99.90
12264;DHT22;6194;49.010;8.414;2023-11-19T05:19:33;11.70;99.90
12264;DHT22;6194;49.010;8.414;2023-11-19T05:21:59;11.60;99.90
12264;DHT22;6194;49.010;8.414;2023-11-19T05:24:24;11.70;99.90
12264;DHT22;6194;49.010;8.414;2023-11-19T05:26:51;11.70;99.90
12264;DHT22;6194;49.010;8.414;2023-11-19T05:29:17;11.70;99.90
12264;DHT22;6194;49.010;8.414;2023-11-19T05:31:42;11.70;99.90
12264;DHT22;6194;49.010;8.414;2023-11-19T05:34:08;11.90;99.90
12264;DHT22;6194;49.010;8.414;2023-11-19T05:36:34;11.70;99.90
12264;DHT22;6194;49.010;8.414;2023-11-19T05:38:59;11.80;99.90
12264;DHT22;6194;49.010;8.414;2023-11-19T05:41:25;11.80;99.90
12264;DHT22;6194;49.010;8.414;2023-11-19T05:43:51;11.80;99.90
12264;DHT22;6194;49.010;8.414;2023-11-19T05:46:17;11.80;99.90
12264;DHT22;6194;49.010;8.414;2023-11-19T05:48:42;11.80;99.90
12264;DHT22;6194;49.010;8.414;2023-11-19T05:51:08;11.80;99.90
12264;DHT22;6194;49.010;8.414;2023-11-19T05:53:33;12.20;99.90
12264;DHT22;6194;49.010;8.414;2023-11-19T05:55:59;11.80;99.90
12264;DHT22;6194;49.010;8.414;2023-11-19T05:58:29;11.80;99.90
12264;DHT22;6194;49.010;8.414;2023-11-19T06:00:56;11.80;99.90
12264;DHT22;6194;49.010;8.414;2023-11-19T06:03:22;11.80;99.90
12264;DHT22;6194;49.010;8.414;2023-11-19T06:05:48;12.10;99.90
12264;DHT22;6194;49.010;8.414;2023-11-19T06:08:14;11.80;99.90
12264;DHT22;6194;49.010;8.414;2023-11-19T06:10:44;11.90;99.90
12264;DHT22;6194;49.010;8.414;2023-11-19T06:13:11;11.90;99.90
12264;DHT22;6194;49.010;8.414;2023-11-19T06:15:37;11.90;99.90
12264;DHT22;6194;49.010;8.414;2023-11-19T06:18:03;11.90;99.90
12264;DHT22;6194;49.010;8.414;2023-11-19T06:20:33;11.90;99.90
12264;DHT22;6194;49.010;8.414;2023-11-19T06:22:59;12.00;99.90
12264;DHT22;6194;49.010;8.414;2023-11-19T06:25:25;12.00;99.90
12264;DHT22;6194;49.010;8.414;2023-11-19T06:27:51;12.50;99.90
12264;DHT22;6194;49.010;8.414;2023-11-19T06:30:17;12.30;99.90
12264;DHT22;6194;49.010;8.414;2023-11-19T06:32:42;12.00;99.90
12264;DHT22;6194;49.010;8.414;2023-11-19T06:35:08;12.10;99.90
12264;DHT22;6194;49.010;8.414;2023-11-19T06:37:35;12.00;99.90
12264;DHT22;6194;49.010;8.414;2023-11-19T06:40:02;12.00;99.90
12264;DHT22;6194;49.010;8.414;2023-11-19T06:42:28;12.00;99.90
12264;DHT22;6194;49.010;8.414;2023-11-19T06:44:53;12.00;99.90
12264;DHT22;6194;49.010;8.414;2023-11-19T06:47:19;12.00;99.90
12264;DHT22;6194;49.010;8.414;2023-11-19T06:49:45;12.00;99.90
12264;DHT22;6194;49.010;8.414;2023-11-19T06:52:10;12.00;99.90
12264;DHT22;6194;49.010;8.414;2023-11-19T06:54:39;12.00;99.90
12264;DHT22;6194;49.010;8.414;2023-11-19T06:57:05;12.00;99.90
12264;DHT22;6194;49.010;8.414;2023-11-19T06:59:31;11.90;99.90
12264;DHT22;6194;49.010;8.414;2023-11-19T07:01:56;12.10;99.90
12264;DHT22;6194;49.010;8.414;2023-11-19T07:04:22;12.00;99.90
12264;DHT22;6194;49.010;8.414;2023-11-19T07:06:48;12.00;99.90
12264;DHT22;6194;49.010;8.414;2023-11-19T07:09:17;12.00;99.90
12264;DHT22;6194;49.010;8.414;2023-11-19T07:11:44;12.10;99.90
12264;DHT22;6194;49.010;8.414;2023-11-19T07:14:11;12.10;99.90
12264;DHT22;6194;49.010;8.414;2023-11-19T07:16:37;12.10;99.90
12264;DHT22;6194;49.010;8.414;2023-11-19T07:19:03;12.00;99.90
12264;DHT22;6194;49.010;8.414;2023-11-19T07:21:29;12.00;99.90
12264;DHT22;6194;49.010;8.414;2023-11-19T07:23:55;12.00;99.90
12264;DHT22;6194;49.010;8.414;2023-11-19T07:26:21;12.00;99.90
12264;DHT22;6194;49.010;8.414;2023-11-19T07:28:47;12.10;99.90
12264;DHT22;6194;49.010;8.414;2023-11-19T07:31:13;12.10;99.90
12264;DHT22;6194;49.010;8.414;2023-11-19T07:33:39;12.10;99.90
12264;DHT22;6194;49.010;8.414;2023-11-19T07:36:08;12.10;99.90
12264;DHT22;6194;49.010;8.414;2023-11-19T07:38:34;12.10;99.90
12264;DHT22;6194;49.010;8.414;2023-11-19T07:41:00;12.20;99.90
12264;DHT22;6194;49.010;8.414;2023-11-19T07:43:26;12.20;99.90
12264;DHT22;6194;49.010;8.414;2023-11-19T07:45:52;12.20;99.90
12264;DHT22;6194;49.010;8.414;2023-11-19T07:48:17;12.30;99.90
12264;DHT22;6194;49.010;8.414;2023-11-19T07:50:48;12.30;99.90
12264;DHT22;6194;49.010;8.414;2023-11-19T07:53:19;12.30;99.90
12264;DHT22;6194;49.010;8.414;2023-11-19T07:55:45;12.40;99.90
12264;DHT22;6194;49.010;8.414;2023-11-19T07:58:11;12.40;99.90
12264;DHT22;6194;49.010;8.414;2023-11-19T08:00:37;12.60;99.90
12264;DHT22;6194;49.010;8.414;2023-11-19T08:03:05;12.50;99.90
12264;DHT22;6194;49.010;8.414;2023-11-19T08:05:31;12.50;99.90
12264;DHT22;6194;49.010;8.414;2023-11-19T08:07:57;12.50;99.90
12264;DHT22;6194;49.010;8.414;2023-11-19T08:10:24;12.50;99.90
12264;DHT22;6194;49.010;8.414;2023-11-19T08:12:49;12.40;99.90
12264;DHT22;6194;49.010;8.414;2023-11-19T08:15:15;12.40;99.90
12264;DHT22;6194;49.010;8.414;2023-11-19T08:17:41;12.60;99.90
12264;DHT22;6194;49.010;8.414;2023-11-19T08:20:08;12.40;99.90
12264;DHT22;6194;49.010;8.414;2023-11-19T08:22:37;12.40;99.90
12264;DHT22;6194;49.010;8.414;2023-11-19T08:25:06;12.50;99.90
12264;DHT22;6194;49.010;8.414;2023-11-19T08:27:33;12.50;99.90
12264;DHT22;6194;49.010;8.414;2023-11-19T08:29:59;12.50;99.90
12264;DHT22;6194;49.010;8.414;2023-11-19T08:32:25;12.60;99.90
12264;DHT22;6194;49.010;8.414;2023-11-19T08:34:51;12.70;99.90
12264;DHT22;6194;49.010;8.414;2023-11-19T08:37:16;12.70;99.90
12264;DHT22;6194;49.010;8.414;2023-11-19T08:39:49;12.70;99.90
12264;DHT22;6194;49.010;8.414;2023-11-19T08:42:14;12.80;99.90
12264;DHT22;6194;49.010;8.414;2023-11-19T08:44:41;12.90;99.90
12264;DHT22;6194;49.010;8.414;2023-11-19T08:47:09;12.80;99.90
12264;DHT22;6194;49.010;8.414;2023-11-19T08:49:35;12.80;99.90
12264;DHT22;6194;49.010;8.414;2023-11-19T08:52:01;12.80;99.90
12264;DHT22;6194;49.010;8.414;2023-11-19T08:54:26;13.00;99.90
12264;DHT22;6194;49.010;8.414;2023-11-19T08:56:52;12.80;99.90
12264;DHT22;6194;49.010;8.414;2023-11-19T08:59:17;12.80;99.90
12264;DHT22;6194;49.010;8.414;2023-11-19T09:01:44;12.80;99.90
12264;DHT22;6194;49.010;8.414;2023-11-19T09:04:10;12.90;99.90
12264;DHT22;6194;49.010;8.414;2023-11-19T09:06:36;12.90;99.90
12264;DHT22;6194;49.010;8.414;2023-11-19T09:09:02;12.90;99.90
12264;DHT22;6194;49.010;8.414;2023-11-19T09:11:31;13.00;99.90
12264;DHT22;6194;49.010;8.414;2023-11-19T09:13:57;13.00;99.90
12264;DHT22;6194;49.010;8.414;2023-11-19T09:16:23;13.00;99.90
12264;DHT22;6194;49.010;8.414;2023-11-19T09:18:48;13.00;99.90
12264;DHT22;6194;49.010;8.414;2023-11-19T09:21:14;13.10;99.90
12264;DHT22;6194;49.010;8.414;2023-11-19T09:23:39;13.10;99.90
12264;DHT22;6194;49.010;8.414;2023-11-19T09:26:08;13.10;99.90
12264;DHT22;6194;49.010;8.414;2023-11-19T09:28:35;13.10;99.90
12264;DHT22;6194;49.010;8.414;2023-11-19T09:31:01;13.20;99.90
12264;DHT22;6194;49.010;8.414;2023-11-19T09:33:30;13.20;99.90
12264;DHT22;6194;49.010;8.414;2023-11-19T09:35:56;13.20;99.90
12264;DHT22;6194;49.010;8.414;2023-11-19T09:38:21;13.30;99.90
12264;DHT22;6194;49.010;8.414;2023-11-19T09:40:47;13.30;99.90
12264;DHT22;6194;49.010;8.414;2023-11-19T09:43:15;13.30;99.90
12264;DHT22;6194;49.010;8.414;2023-11-19T09:45:50;13.30;99.90
12264;DHT22;6194;49.010;8.414;2023-11-19T09:48:19;13.40;99.90
12264;DHT22;6194;49.010;8.414;2023-11-19T09:50:48;13.50;99.90
12264;DHT22;6194;49.010;8.414;2023-11-19T09:53:14;13.50;99.90
12264;DHT22;6194;49.010;8.414;2023-11-19T09:55:41;13.50;99.90
12264;DHT22;6194;49.010;8.414;2023-11-19T09:58:07;13.60;99.90
12264;DHT22;6194;49.010;8.414;2023-11-19T10:00:33;13.60;99.90
12264;DHT22;6194;49.010;8.414;2023-11-19T10:02:59;13.60;99.90
12264;DHT22;6194;49.010;8.414;2023-11-19T10:05:25;13.60;99.90
12264;DHT22;6194;49.010;8.414;2023-11-19T10:07:52;13.70;99.90
12264;DHT22;6194;49.010;8.414;2023-11-19T10:10:17;13.70;99.90
12264;DHT22;6194;49.010;8.414;2023-11-19T10:12:47;13.70;99.90
12264;DHT22;6194;49.010;8.414;2023-11-19T10:15:23;13.70;99.90
12264;DHT22;6194;49.010;8.414;2023-11-19T10:17:50;14.00;99.90
12264;DHT22;6194;49.010;8.414;2023-11-19T10:20:16;14.20;99.90
12264;DHT22;6194;49.010;8.414;2023-11-19T10:22:42;14.50;99.90
12264;DHT22;6194;49.010;8.414;2023-11-19T10:25:27;14.70;99.90
12264;DHT22;6194;49.010;8.414;2023-11-19T10:27:54;14.80;99.90
12264;DHT22;6194;49.010;8.414;2023-11-19T10:30:27;14.90;99.90
12264;DHT22;6194;49.010;8.414;2023-11-19T10:33:13;14.90;99.90
12264;DHT22;6194;49.010;8.414;2023-11-19T10:35:53;14.90;99.90
12264;DHT22;6194;49.010;8.414;2023-11-19T10:38:19;15.00;99.90
12264;DHT22;6194;49.010;8.414;2023-11-19T10:40:45;15.00;99.90
12264;DHT22;6194;49.010;8.414;2023-11-19T10:43:11;15.30;99.90
12264;DHT22;6194;49.010;8.414;2023-11-19T10:45:38;15.20;99.90
12264;DHT22;6194;49.010;8.414;2023-11-19T10:48:04;15.20;99.90
12264;DHT22;6194;49.010;8.414;2023-11-19T10:50:37;15.20;99.90
12264;DHT22;6194;49.010;8.414;2023-11-19T10:53:04;15.10;99.90
12264;DHT22;6194;49.010;8.414;2023-11-19T10:55:32;15.00;99.90
12264;DHT22;6194;49.010;8.414;2023-11-19T10:58:02;15.30;99.90
12264;DHT22;6194;49.010;8.414;2023-11-19T11:00:46;15.00;99.90
12264;DHT22;6194;49.010;8.414;2023-11-19T11:03:20;14.90;99.90
12264;DHT22;6194;49.010;8.414;2023-11-19T11:05:51;14.90;99.90
12264;DHT22;6194;49.010;8.414;2023-11-19T11:08:18;14.80;99.90
12264;DHT22;6194;49.010;8.414;2023-11-19T11:10:57;14.80;99.90
12264;DHT22;6194;49.010;8.414;2023-11-19T11:13:24;15.00;99.90
12264;DHT22;6194;49.010;8.414;2023-11-19T11:15:50;15.10;99.90
12264;DHT22;6194;49.010;8.414;2023-11-19T11:18:17;14.90;99.90
12264;DHT22;6194;49.010;8.414;2023-11-19T11:20:47;14.80;99.90
12264;DHT22;6194;49.010;8.414;2023-11-19T11:39:41;15.60;99.90
12264;DHT22;6194;49.010;8.414;2023-11-19T11:45:05;16.70;99.90
12264;DHT22;6194;49.010;8.414;2023-11-19T11:50:14;16.00;99.90
12264;DHT22;6194;49.010;8.414;2023-11-19T11:55:51;15.50;99.90
12264;DHT22;6194;49.010;8.414;2023-11-19T11:58:20;15.40;99.90
12264;DHT22;6194;49.010;8.414;2023-11-19T12:00:47;15.20;99.90
12264;DHT22;6194;49.010;8.414;2023-11-19T12:03:13;15.00;99.90
12264;DHT22;6194;49.010;8.414;2023-11-19T12:05:44;14.90;99.90
12264;DHT22;6194;49.010;8.414;2023-11-19T12:08:11;15.00;99.90
12264;DHT22;6194;49.010;8.414;2023-11-19T12:10:45;15.10;99.90
12264;DHT22;6194;49.010;8.414;2023-11-19T12:13:13;15.20;99.90
12264;DHT22;6194;49.010;8.414;2023-11-19T12:18:32;15.30;99.90
12264;DHT22;6194;49.010;8.414;2023-11-19T12:20:58;15.40;99.90
12264;DHT22;6194;49.010;8.414;2023-11-19T12:23:29;15.50;99.90
12264;DHT22;6194;49.010;8.414;2023-11-19T12:25:55;15.60;99.90
12264;DHT22;6194;49.010;8.414;2023-11-19T12:28:20;15.60;99.90
12264;DHT22;6194;49.010;8.414;2023-11-19T12:30:46;15.40;99.90
12264;DHT22;6194;49.010;8.414;2023-11-19T12:33:13;15.30;99.90
12264;DHT22;6194;49.010;8.414;2023-11-19T12:35:43;15.40;99.90
12264;DHT22;6194;49.010;8.414;2023-11-19T12:38:27;15.50;99.90
12264;DHT22;6194;49.010;8.414;2023-11-19T12:41:05;15.70;99.90
12264;DHT22;6194;49.010;8.414;2023-11-19T12:43:31;15.80;99.90
12264;DHT22;6194;49.010;8.414;2023-11-19T12:45:57;16.00;99.90
12264;DHT22;6194;49.010;8.414;2023-11-19T12:48:23;16.00;99.90
12264;DHT22;6194;49.010;8.414;2023-11-19T12:50:58;16.10;99.90
12264;DHT22;6194;49.010;8.414;2023-11-19T12:53:26;16.30;99.90
12264;DHT22;6194;49.010;8.414;2023-11-19T12:55:52;16.40;99.90
12264;DHT22;6194;49.010;8.414;2023-11-19T12:58:34;16.30;99.90
12264;DHT22;6194;49.010;8.414;2023-11-19T13:01:04;16.00;99.90
12264;DHT22;6194;49.010;8.414;2023-11-19T13:03:31;15.70;99.90
12264;DHT22;6194;49.010;8.414;2023-11-19T13:08:36;15.40;99.90
12264;DHT22;6194;49.010;8.414;2023-11-19T13:11:03;15.50;99.90
12264;DHT22;6194;49.010;8.414;2023-11-19T13:13:29;15.30;99.90
12264;DHT22;6194;49.010;8.414;2023-11-19T13:16:02;15.40;99.90
12264;DHT22;6194;49.010;8.414;2023-11-19T13:18:31;15.50;99.90
12264;DHT22;6194;49.010;8.414;2023-11-19T13:20:56;15.60;99.90
12264;DHT22;6194;49.010;8.414;2023-11-19T13:23:22;15.80;99.90
12264;DHT22;6194;49.010;8.414;2023-11-19T13:25:48;16.00;99.90
12264;DHT22;6194;49.010;8.414;2023-11-19T13:28:14;16.00;99.90
12264;DHT22;6194;49.010;8.414;2023-11-19T13:30:39;16.10;99.90
12264;DHT22;6194;49.010;8.414;2023-11-19T13:33:05;16.10;99.90
12264;DHT22;6194;49.010;8.414;2023-11-19T13:35:31;16.10;99.90
12264;DHT22;6194;49.010;8.414;2023-11-19T13:37:56;16.00;99.90
12264;DHT22;6194;49.010;8.414;2023-11-19T13:40:22;16.10;99.90
12264;DHT22;6194;49.010;8.414;2023-11-19T13:42:49;15.90;99.90
12264;DHT22;6194;49.010;8.414;2023-11-19T13:45:16;15.90;99.90
12264;DHT22;6194;49.010;8.414;2023-11-19T13:47:44;15.90;99.90
12264;DHT22;6194;49.010;8.414;2023-11-19T13:50:12;15.90;99.90
12264;DHT22;6194;49.010;8.414;2023-11-19T13:52:38;15.90;99.90
12264;DHT22;6194;49.010;8.414;2023-11-19T13:55:05;15.80;99.90
12264;DHT22;6194;49.010;8.414;2023-11-19T13:57:32;15.70;99.90
12264;DHT22;6194;49.010;8.414;2023-11-19T13:59:58;15.50;99.90
12264;DHT22;6194;49.010;8.414;2023-11-19T14:02:23;15.40;99.90
12264;DHT22;6194;49.010;8.414;2023-11-19T14:04:49;15.30;99.90
12264;DHT22;6194;49.010;8.414;2023-11-19T14:07:14;15.20;99.90
12264;DHT22;6194;49.010;8.414;2023-11-19T14:09:42;15.10;99.90
12264;DHT22;6194;49.010;8.414;2023-11-19T14:12:08;15.00;99.90
12264;DHT22;6194;49.010;8.414;2023-11-19T14:14:35;15.00;99.90
12264;DHT22;6194;49.010;8.414;2023-11-19T14:17:02;15.00;99.90
12264;DHT22;6194;49.010;8.414;2023-11-19T14:19:28;14.90;99.90
12264;DHT22;6194;49.010;8.414;2023-11-19T14:21:54;14.90;99.90
12264;DHT22;6194;49.010;8.414;2023-11-19T14:24:19;14.80;99.90
12264;DHT22;6194;49.010;8.414;2023-11-19T14:26:48;14.70;99.90
12264;DHT22;6194;49.010;8.414;2023-11-19T14:29:15;14.70;99.90
12264;DHT22;6194;49.010;8.414;2023-11-19T14:31:41;14.90;99.90
12264;DHT22;6194;49.010;8.414;2023-11-19T14:34:06;14.80;99.90
12264;DHT22;6194;49.010;8.414;2023-11-19T14:36:32;14.80;99.90
12264;DHT22;6194;49.010;8.414;2023-11-19T14:38:58;14.80;99.90
12264;DHT22;6194;49.010;8.414;2023-11-19T14:41:24;14.90;99.90
12264;DHT22;6194;49.010;8.414;2023-11-19T14:43:50;14.90;99.90
12264;DHT22;6194;49.010;8.414;2023-11-19T14:46:16;14.80;99.90
12264;DHT22;6194;49.010;8.414;2023-11-19T14:48:41;14.90;99.90
12264;DHT22;6194;49.010;8.414;2023-11-19T14:51:07;14.80;99.90
12264;DHT22;6194;49.010;8.414;2023-11-19T14:53:34;14.80;99.90
12264;DHT22;6194;49.010;8.414;2023-11-19T14:56:00;14.80;99.90
12264;DHT22;6194;49.010;8.414;2023-11-19T14:58:26;14.80;99.90
12264;DHT22;6194;49.010;8.414;2023-11-19T15:00:52;14.80;99.90
12264;DHT22;6194;49.010;8.414;2023-11-19T15:03:18;14.70;99.90
12264;DHT22;6194;49.010;8.414;2023-11-19T15:05:47;14.70;99.90
12264;DHT22;6194;49.010;8.414;2023-11-19T15:08:13;14.60;99.90
12264;DHT22;6194;49.010;8.414;2023-11-19T15:10:42;14.60;99.90
12264;DHT22;6194;49.010;8.414;2023-11-19T15:13:08;14.50;99.90
12264;DHT22;6194;49.010;8.414;2023-11-19T15:15:34;14.50;99.90
12264;DHT22;6194;49.010;8.414;2023-11-19T15:18:00;14.60;99.90
12264;DHT22;6194;49.010;8.414;2023-11-19T15:20:26;14.70;99.90
12264;DHT22;6194;49.010;8.414;2023-11-19T15:22:55;14.80;99.90
12264;DHT22;6194;49.010;8.414;2023-11-19T15:25:21;14.80;99.90
12264;DHT22;6194;49.010;8.414;2023-11-19T15:27:48;14.60;99.90
12264;DHT22;6194;49.010;8.414;2023-11-19T15:30:14;14.60;99.90
12264;DHT22;6194;49.010;8.414;2023-11-19T15:32:39;14.50;99.90
12264;DHT22;6194;49.010;8.414;2023-11-19T15:35:06;14.50;99.90
12264;DHT22;6194;49.010;8.414;2023-11-19T15:37:38;14.50;99.90
12264;DHT22;6194;49.010;8.414;2023-11-19T15:40:09;14.40;99.90
12264;DHT22;6194;49.010;8.414;2023-11-19T15:42:37;14.40;99.90
12264;DHT22;6194;49.010;8.414;2023-11-19T15:45:03;14.40;99.90
12264;DHT22;6194;49.010;8.414;2023-11-19T15:47:30;14.30;99.90
12264;DHT22;6194;49.010;8.414;2023-11-19T15:49:56;14.20;99.90
12264;DHT22;6194;49.010;8.414;2023-11-19T15:52:22;14.10;99.90
12264;DHT22;6194;49.010;8.414;2023-11-19T15:54:47;14.00;99.90
12264;DHT22;6194;49.010;8.414;2023-11-19T15:57:13;14.20;99.90
12264;DHT22;6194;49.010;8.414;2023-11-19T15:59:39;13.90;99.90
12264;DHT22;6194;49.010;8.414;2023-11-19T16:02:05;13.90;99.90
12264;DHT22;6194;49.010;8.414;2023-11-19T16:04:30;14.10;99.90
12264;DHT22;6194;49.010;8.414;2023-11-19T16:06:56;13.90;99.90
12264;DHT22;6194;49.010;8.414;2023-11-19T16:09:21;14.10;99.90
12264;DHT22;6194;49.010;8.414;2023-11-19T16:11:50;14.20;99.90
12264;DHT22;6194;49.010;8.414;2023-11-19T16:14:16;14.20;99.90
12264;DHT22;6194;49.010;8.414;2023-11-19T16:16:41;14.30;99.90
12264;DHT22;6194;49.010;8.414;2023-11-19T16:19:07;14.20;99.90